»·PEaware :: N885KW KLAX-P52

N885KW :: KLAX-P52

FLIGHT INFORMATION

Flight Status: Arrived
Operator: Privately registered:
United States
More flights under this callsign
Pilot: Kyle C. (29200)
Aircraft: PIPER PA-28R-201 ARROW
(P28R)
More flights by this aircraft type
Origin: KLAX Los Angeles Intl
United States
Destination: P52 Cottonwood
United States
More flights between these airports :: More routes between these airports
Route: +
File this flight plan on PilotEdge
Remarks:
Altitude:
(Current/Filed)
9,500ft
Speed:
(Current/Filed)
0kts
Departed: 30-May-20 04:43 PM
Arrived: 30-May-20 07:05 PM
Distance/Time
Traveled:
319nm/2:22
Distance/Time
To Go:
Arrived

Flight Plot

Page will automatically refresh every two minutes.

Flight plan parsing failed; only flown route is shown


Map Options




Map Legend


Flown Route
Filed Route
Departure Airport
Arrival Airport
Navaid (VOR, NDB)
Fix

Horizontal Profiles

Position Reports

Time Latitude Longitude Heading Altitude Ground
Speed
30-May-20 16:34 33.933207 -118.397457 264 111ft 0kts
30-May-20 16:35 33.933207 -118.397457 264 111ft 0kts
30-May-20 16:36 33.933207 -118.397457 264 111ft 0kts
30-May-20 16:37 33.934374 -118.398207 9 111ft 11kts
30-May-20 16:38 33.935067 -118.393077 88 105ft 19kts
30-May-20 16:39 33.935769 -118.386232 83 99ft 22kts
30-May-20 16:41 33.936380 -118.382838 16 98ft 0kts
30-May-20 16:42 33.936192 -118.382725 317 98ft 0kts
30-May-20 16:43 33.936796 -118.388465 262 102ft 80kts
30-May-20 16:44 33.933217 -118.422612 259 1029ft 104kts
30-May-20 16:45 33.913892 -118.436037 158 2125ft 130kts
30-May-20 16:46 33.882883 -118.408267 113 2581ft 171kts
30-May-20 16:47 33.889544 -118.358650 80 3863ft 132kts
30-May-20 16:48 33.895207 -118.313915 81 4912ft 131kts
30-May-20 16:49 33.899938 -118.261144 86 5049ft 165kts
30-May-20 16:50 33.894884 -118.208663 145 5343ft 151kts
30-May-20 16:51 33.865624 -118.175862 121 4239ft 146kts
30-May-20 16:52 33.854375 -118.126882 106 4022ft 168kts
30-May-20 16:53 33.846837 -118.067792 96 3763ft 188kts
30-May-20 16:54 33.807255 -118.040205 183 3470ft 167kts
30-May-20 16:55 33.762158 -118.044022 189 3490ft 161kts
30-May-20 16:56 33.717411 -118.048554 189 3600ft 156kts
30-May-20 16:57 33.678075 -118.051912 189 4469ft 131kts
30-May-20 16:57 33.649013 -118.053850 189 5287ft 121kts
30-May-20 16:59 33.606853 -118.041406 141 5499ft 166kts
30-May-20 17:00 33.595280 -117.985986 99 5510ft 179kts
30-May-20 17:00 33.590301 -117.936415 99 5509ft 179kts
30-May-20 17:01 33.585046 -117.880993 99 5502ft 149kts
30-May-20 17:03 33.580461 -117.826198 99 5507ft 136kts
30-May-20 17:03 33.579760 -117.793765 78 5983ft 101kts
30-May-20 17:04 33.589173 -117.757209 64 6689ft 133kts
30-May-20 17:05 33.606770 -117.714274 64 7329ft 150kts
30-May-20 17:06 33.625729 -117.667869 64 7853ft 159kts
30-May-20 17:07 33.645301 -117.619786 64 8364ft 160kts
30-May-20 17:08 33.664885 -117.571454 64 8875ft 160kts
30-May-20 17:09 33.684367 -117.523070 64 9340ft 163kts
30-May-20 17:10 33.704212 -117.471991 65 9507ft 176kts
30-May-20 17:11 33.725050 -117.417363 64 9503ft 181kts
30-May-20 17:12 33.746182 -117.362413 64 9521ft 182kts
30-May-20 17:13 33.766697 -117.308840 64 9512ft 180kts
30-May-20 17:14 33.786610 -117.256925 65 9503ft 156kts
30-May-20 17:15 33.803908 -117.211791 65 9506ft 143kts
30-May-20 17:16 33.820185 -117.169117 65 9507ft 138kts
30-May-20 17:17 33.836197 -117.127066 65 9509ft 137kts
30-May-20 17:18 33.852042 -117.085416 66 9505ft 137kts
30-May-20 17:19 33.867999 -117.043381 67 9505ft 138kts
30-May-20 17:20 33.884090 -117.001033 68 9505ft 139kts
30-May-20 17:21 33.900278 -116.958345 70 9505ft 140kts
30-May-20 17:22 33.916546 -116.915412 72 9504ft 141kts
30-May-20 17:23 33.932788 -116.872465 73 9501ft 141kts
30-May-20 17:24 33.949117 -116.829193 72 9474ft 143kts
30-May-20 17:25 33.965269 -116.786554 72 9604ft 134kts
30-May-20 17:26 33.981211 -116.743872 71 9586ft 143kts
30-May-20 17:27 34.003882 -116.702643 55 9558ft 150kts
30-May-20 17:28 34.028656 -116.661643 54 9531ft 152kts
30-May-20 17:29 34.053802 -116.620167 54 9514ft 153kts
30-May-20 17:30 34.074376 -116.576596 86 9514ft 148kts
30-May-20 17:31 34.079674 -116.527424 90 9514ft 147kts
30-May-20 17:32 34.084613 -116.478377 89 9516ft 147kts
30-May-20 17:33 34.089691 -116.429177 89 9519ft 147kts
30-May-20 17:34 34.094730 -116.380325 90 9529ft 146kts
30-May-20 17:35 34.099739 -116.331626 91 9549ft 144kts
30-May-20 17:36 34.104609 -116.284198 92 9563ft 139kts
30-May-20 17:37 34.109301 -116.237990 92 9583ft 137kts
30-May-20 17:38 34.113891 -116.192631 93 9602ft 135kts
30-May-20 17:39 34.118386 -116.147765 93 9615ft 134kts
30-May-20 17:40 34.122922 -116.102995 93 9616ft 134kts
30-May-20 17:41 34.127408 -116.058263 93 9616ft 134kts
30-May-20 17:42 34.131904 -116.013334 93 9616ft 134kts
30-May-20 17:43 34.136377 -115.968390 93 9615ft 135kts
30-May-20 17:44 34.140992 -115.921312 92 9614ft 141kts
30-May-20 17:45 34.145684 -115.874777 93 9616ft 138kts
30-May-20 17:46 34.150212 -115.828666 93 9617ft 137kts
30-May-20 17:47 34.154697 -115.782785 93 9617ft 137kts
30-May-20 17:48 34.159175 -115.736956 93 9618ft 137kts
30-May-20 17:49 34.163854 -115.690997 87 9617ft 140kts
30-May-20 17:50 34.176492 -115.645563 78 9618ft 143kts
30-May-20 17:51 34.189756 -115.600362 78 9618ft 143kts
30-May-20 17:52 34.202934 -115.555132 78 9618ft 143kts
30-May-20 17:53 34.216159 -115.509651 78 9619ft 144kts
30-May-20 17:54 34.229966 -115.461759 77 9622ft 155kts
30-May-20 17:55 34.244508 -115.411598 77 9605ft 160kts
30-May-20 17:56 34.259372 -115.360376 77 9567ft 162kts
30-May-20 17:57 34.274118 -115.309402 78 9527ft 161kts
30-May-20 17:58 34.288912 -115.258095 79 9490ft 161kts
30-May-20 17:59 34.303590 -115.207067 79 9453ft 160kts
30-May-20 18:00 34.318153 -115.156399 79 9443ft 158kts
30-May-20 18:01 34.332416 -115.106659 80 9443ft 155kts
30-May-20 18:02 34.346505 -115.057418 80 9443ft 153kts
30-May-20 18:03 34.360338 -115.008995 81 9444ft 151kts
30-May-20 18:04 34.373970 -114.961199 81 9444ft 149kts
30-May-20 18:05 34.387481 -114.913721 81 9443ft 148kts
30-May-20 18:06 34.400831 -114.866713 81 9444ft 147kts
30-May-20 18:07 34.414176 -114.819663 81 9444ft 147kts
30-May-20 18:08 34.427534 -114.772533 81 9444ft 147kts
30-May-20 18:09 34.440755 -114.726076 82 9524ft 142kts
30-May-20 18:10 34.453622 -114.680133 82 9526ft 146kts
30-May-20 18:11 34.466859 -114.633128 81 9524ft 147kts
30-May-20 18:12 34.480302 -114.585259 81 9526ft 156kts
30-May-20 18:13 34.494646 -114.533929 80 9521ft 163kts
30-May-20 18:14 34.509464 -114.481331 80 9518ft 165kts
30-May-20 18:15 34.524234 -114.428617 80 9519ft 165kts
30-May-20 18:16 34.539029 -114.375646 80 9518ft 165kts
30-May-20 18:17 34.553613 -114.323337 81 9518ft 165kts
30-May-20 18:18 34.565587 -114.269692 85 9519ft 164kts
30-May-20 18:19 34.577377 -114.215537 84 9519ft 166kts
30-May-20 18:20 34.589389 -114.161292 85 9518ft 166kts
30-May-20 18:21 34.601381 -114.107118 84 9518ft 166kts
30-May-20 18:22 34.613464 -114.052668 84 9519ft 166kts
30-May-20 18:23 34.625450 -113.998387 84 9519ft 166kts
30-May-20 18:24 34.637405 -113.944118 84 9536ft 165kts
30-May-20 18:25 34.649265 -113.890067 84 9562ft 165kts
30-May-20 18:26 34.661108 -113.836008 84 9593ft 165kts
30-May-20 18:27 34.672931 -113.781902 84 9630ft 165kts
30-May-20 18:28 34.684749 -113.727697 84 9665ft 166kts
30-May-20 18:29 34.696603 -113.673210 84 9684ft 166kts
30-May-20 18:30 34.708336 -113.618761 88 9694ft 165kts
30-May-20 18:31 34.710081 -113.564526 99 9698ft 158kts
30-May-20 18:32 34.710590 -113.511446 99 9703ft 156kts
30-May-20 18:33 34.711511 -113.458683 98 9705ft 155kts
30-May-20 18:34 34.712482 -113.405998 98 9706ft 155kts
30-May-20 18:35 34.713442 -113.353406 99 9707ft 155kts
30-May-20 18:36 34.714356 -113.301904 99 9706ft 155kts
30-May-20 18:38 34.715256 -113.249190 99 9672ft 157kts
30-May-20 18:39 34.716176 -113.196219 99 9680ft 155kts
30-May-20 18:40 34.717036 -113.144062 99 9708ft 153kts
30-May-20 18:41 34.717912 -113.092107 98 9676ft 157kts
30-May-20 18:42 34.718924 -113.037413 95 9488ft 159kts
30-May-20 18:43 34.723523 -112.983797 93 9491ft 159kts
30-May-20 18:44 34.728097 -112.930270 92 9489ft 159kts
30-May-20 18:45 34.732477 -112.876397 92 9491ft 160kts
30-May-20 18:46 34.736933 -112.820224 90 9153ft 175kts
30-May-20 18:47 34.741879 -112.760018 89 8671ft 180kts
30-May-20 18:48 34.746804 -112.699563 89 8176ft 180kts
30-May-20 18:49 34.751610 -112.638600 89 7702ft 181kts
30-May-20 18:50 34.756373 -112.577826 89 7230ft 180kts
30-May-20 18:51 34.761187 -112.517217 89 6846ft 174kts
30-May-20 18:52 34.765573 -112.460392 90 6736ft 171kts
30-May-20 18:53 34.775560 -112.402368 62 6266ft 185kts
30-May-20 18:54 34.789125 -112.345386 80 6062ft 170kts
30-May-20 18:54 34.799279 -112.303050 79 6699ft 134kts
30-May-20 18:56 34.820693 -112.252603 60 7255ft 160kts
30-May-20 18:56 34.837678 -112.212055 74 7367ft 164kts
30-May-20 18:57 34.843603 -112.163394 97 7068ft 146kts
30-May-20 18:59 34.841056 -112.112828 127 6666ft 103kts
30-May-20 18:59 34.823952 -112.093698 158 6021ft 114kts
30-May-20 19:00 34.800461 -112.072792 155 5564ft 94kts
30-May-20 19:01 34.775302 -112.059423 158 4938ft 101kts
30-May-20 19:02 34.749074 -112.045380 175 3911ft 98kts
30-May-20 19:03 34.729833 -112.035061 154 3546ft 41kts
30-May-20 19:04 34.727741 -112.033016 158 3550ft 0kts

Navigation Log

Ident Type
Flight plan parsing failed, navigation log unavailable